CST,Max TemperatureF,Mean TemperatureF,Min TemperatureF,Max Dew PointF,MeanDew PointF,Min DewpointF,Max Humidity, Mean Humidity, Min Humidity, Max Sea Level PressureIn, Mean Sea Level PressureIn, Min Sea Level PressureIn, Max VisibilityMiles, Mean VisibilityMiles, Min VisibilityMiles, Max Wind SpeedMPH, Mean Wind SpeedMPH, Max Gust SpeedMPH,PrecipitationIn, CloudCover, Events, WindDirDegrees
2012-11-1,50,42,37,41,33,25,89,71,44,30.12,30.04,29.97,,,,18,13,24,0.00,,,70
2012-11-2,41,38,34,29,26,24,73,65,57,30.15,30.05,29.93,,,,21,12,28,0.00,,,94
2012-11-3,50,42,34,35,32,29,82,70,56,30.24,30.20,30.17,,,,10,4,,0.00,,,333
2012-11-4,39,32,28,34,30,25,89,85,76,30.23,30.18,30.13,,,,9,6,,0.07,,,64
2012-11-5,45,40,34,38,34,31,92,84,74,30.26,30.13,29.90,,,,12,7,,0.00,,,190
2012-11-6,55,44,32,39,29,24,75,55,30,30.14,30.09,29.94,,,,26,13,38,0.00,,,306
2012-11-7,63,46,28,30,26,21,85,53,25,30.15,29.98,29.76,,,,21,9,28,0.00,,,168
2012-11-8,57,46,36,39,32,27,79,62,44,30.04,29.92,29.73,,,,21,11,26,0.00,,,22
2012-11-9,50,42,35,41,36,32,96,80,59,30.01,29.88,29.68,,,,14,10,55,0.00,,,72
2012-11-10,45,33,21,42,34,16,93,85,78,29.87,29.63,29.54,,,,31,10,41,0.11,,,303
2012-11-11,23,18,12,15,9,4,75,65,55,30.16,30.06,29.89,,,,24,19,32,0.00,,,300
2012-11-12,33,25,17,17,12,7,78,63,49,30.33,30.27,30.17,,,,20,13,25,0.00,,,278
2012-11-13,37,28,18,28,22,13,85,76,65,30.30,30.28,30.25,,,,9,3,,0.00,,,240
2012-11-14,55,40,24,33,28,21,88,71,39,30.28,30.19,30.08,,,,15,5,,0.00,,,262
2012-11-15,46,36,25,30,25,17,88,70,46,30.51,30.39,30.17,,,,13,8,,0.00,,,339
2012-11-16,59,40,21,32,26,16,82,58,33,30.48,30.24,30.06,,,,26,12,37,0.00,,,161
2012-11-17,66,52,37,35,32,28,71,54,28,30.06,30.00,29.93,,,,15,9,,0.00,,,204
2012-11-18,69,48,28,40,33,25,85,61,25,30.00,29.92,29.83,,,,22,6,32,0.00,,,157
2012-11-19,55,45,32,34,30,25,83,62,36,30.20,30.08,29.86,,,,17,9,21,0.00,,,302
2012-11-20,73,50,26,32,27,23,88,53,17,30.19,30.05,29.94,,,,20,7,25,0.00,,,196
2012-11-21,75,56,37,29,26,23,65,39,17,29.93,29.76,29.61,,,,16,6,,0.00,,,197
2012-11-22,55,40,25,41,29,13,86,59,29,30.44,30.02,29.61,,,,25,16,44,0.02,,,314
2012-11-23,30,24,17,15,11,9,75,63,43,30.62,30.51,30.35,,,,25,15,33,0.00,,,325
2012-11-24,46,35,24,31,19,13,65,51,35,30.30,30.00,29.86,,,,21,13,,0.00,,,206
2012-11-25,41,34,26,30,24,16,82,71,62,30.28,30.09,29.96,,,,14,9,,0.00,,,355
2012-11-26,28,21,14,16,10,4,88,65,45,30.55,30.43,30.31,,,,13,9,,0.00,,,296
2012-11-27,43,32,21,24,20,16,85,71,45,30.32,30.24,30.16,,,,13,7,,0.00,,,260
2012-11-28,51,33,15,25,20,11,89,65,29,30.33,30.16,30.02,,,,22,7,28,0.00,,,205
2012-11-29,41,28,16,23,20,12,89,74,49,30.09,30.02,29.91,,,,16,6,,0.00,,,31
2012-11-30,42,30,18,28,23,15,92,75,53,30.14,30.01,29.79,,,,18,9,24,0.00,,,138